Time;durP1;ratioP1;P1;durP2;ratioP2;P2;SDS_P1;SDS_P2;PMS_P1;PMS_P2;Temp;Humidity;BMP_temperature;BMP_pressure;BME280_temperature;BME280_humidity;BME280_pressure;Samples;Min_cycle;Max_cycle;Signal;HPM_P1;HPM_P2
2022/02/08 00:00:14;;;;;;;;;;;-0.90;99.90;;;;;;5068137;28;20003;-72
2022/02/08 00:02:44;;;;;;;;;;;-0.80;99.90;;;;;;5073989;28;20025;-72
2022/02/08 00:05:12;;;;;;;;;;;-0.70;99.90;;;;;;5073803;28;19912;-74
2022/02/08 00:07:38;;;;;;;;;;;-0.70;99.90;;;;;;5074039;28;19915;-73
2022/02/08 00:10:04;;;;;;;;;;;-0.70;99.90;;;;;;5074080;28;19909;-73
2022/02/08 00:12:29;;;;;;;;;;;-0.70;99.90;;;;;;5073876;28;19931;-73
2022/02/08 00:14:55;;;;;;;;;;;-0.60;99.90;;;;;;5073654;28;19912;-72
2022/02/08 00:17:21;;;;;;;;;;;-0.70;99.90;;;;;;5073649;28;19939;-73
2022/02/08 00:19:46;;;;;;;;;;;-0.70;99.90;;;;;;5073619;28;19920;-73
2022/02/08 00:22:12;;;;;;;;;;;-0.70;99.90;;;;;;5072126;28;19912;-72
2022/02/08 00:24:37;;;;;;;;;;;-0.60;99.90;;;;;;5073248;28;19955;-72
2022/02/08 00:27:04;;;;;;;;;;;-0.50;99.90;;;;;;5073749;28;19999;-73
2022/02/08 00:29:30;;;;;;;;;;;-0.50;99.90;;;;;;5073665;28;19995;-72
2022/02/08 00:31:55;;;;;;;;;;;-0.50;99.90;;;;;;5073396;28;20416;-72
2022/02/08 00:34:21;;;;;;;;;;;-0.40;99.90;;;;;;5071817;28;19909;-72
2022/02/08 00:36:46;;;;;;;;;;;-0.30;99.90;;;;;;5071761;28;19916;-72
2022/02/08 00:39:12;;;;;;;;;;;-0.30;99.90;;;;;;5073428;28;19915;-72
2022/02/08 00:41:38;;;;;;;;;;;-0.20;99.90;;;;;;5073309;28;19939;-73
2022/02/08 00:44:09;;;;;;;;;;;-0.10;99.90;;;;;;5073188;28;19930;-72
2022/02/08 00:47:23;;;;;;;;;;;-0.10;99.90;;;;;;5073131;28;19908;-73
2022/02/08 00:49:30;;;;;;;;;;;-0.10;99.90;;;;;;5059430;28;20368;-73
2022/02/08 00:52:04;;;;;;;;;;;-0.10;99.90;;;;;;5066804;28;19913;-73
2022/02/08 00:54:30;;;;;;;;;;;-0.20;99.90;;;;;;5072736;28;19912;-72
2022/02/08 00:56:55;;;;;;;;;;;-0.20;99.90;;;;;;5073076;28;19920;-74
2022/02/08 00:59:21;;;;;;;;;;;-0.10;99.90;;;;;;5072860;28;20365;-73
2022/02/08 01:01:46;;;;;;;;;;;-0.10;99.90;;;;;;5072901;28;19979;-73
2022/02/08 01:04:12;;;;;;;;;;;0.00;99.90;;;;;;5072801;28;19930;-73
2022/02/08 01:06:40;;;;;;;;;;;0.00;99.90;;;;;;5072796;28;19962;-73
2022/02/08 01:09:40;;;;;;;;;;;0.00;99.90;;;;;;5072863;28;19913;-74
2022/02/08 01:11:54;;;;;;;;;;;0.00;99.90;;;;;;5072313;28;19915;-73
2022/02/08 01:14:22;;;;;;;;;;;0.00;99.90;;;;;;5072111;28;19916;-74
2022/02/08 01:16:48;;;;;;;;;;;0.10;99.90;;;;;;5072558;28;19923;-74
2022/02/08 01:19:14;;;;;;;;;;;0.20;99.90;;;;;;5072615;28;19909;-73
2022/02/08 01:21:40;;;;;;;;;;;0.20;99.90;;;;;;5072358;28;20009;-73
2022/02/08 01:24:05;;;;;;;;;;;0.10;99.90;;;;;;5072761;28;20473;-73
2022/02/08 01:26:33;;;;;;;;;;;0.10;99.90;;;;;;5072580;28;19908;-73
2022/02/08 01:29:05;;;;;;;;;;;0.20;99.90;;;;;;5071409;28;20338;-73
2022/02/08 01:31:36;;;;;;;;;;;0.20;99.90;;;;;;5072457;28;19944;-73
2022/02/08 01:36:48;;;;;;;;;;;0.20;99.90;;;;;;5072352;28;19931;-73
2022/02/08 01:39:20;;;;;;;;;;;0.20;99.90;;;;;;5065782;28;19932;-73
2022/02/08 01:47:20;;;;;;;;;;;0.00;99.90;;;;;;5071950;28;19999;-73
2022/02/08 01:50:11;;;;;;;;;;;0.10;99.90;;;;;;5072156;28;19922;-73
2022/02/08 01:52:37;;;;;;;;;;;0.10;99.90;;;;;;5067533;28;20000;-74
2022/02/08 01:55:03;;;;;;;;;;;0.10;99.90;;;;;;5071435;28;20370;-73
2022/02/08 01:57:28;;;;;;;;;;;0.20;99.90;;;;;;5071703;28;19916;-73
2022/02/08 01:59:54;;;;;;;;;;;0.30;99.90;;;;;;5070413;28;20309;-72
2022/02/08 02:02:20;;;;;;;;;;;0.40;99.90;;;;;;5070383;28;20364;-73
2022/02/08 02:04:47;;;;;;;;;;;0.50;99.90;;;;;;5071319;28;19912;-73
2022/02/08 02:07:12;;;;;;;;;;;0.40;99.90;;;;;;5071690;28;19946;-73
2022/02/08 02:09:39;;;;;;;;;;;0.40;99.90;;;;;;5071758;28;20398;-73
2022/02/08 02:12:06;;;;;;;;;;;0.50;99.90;;;;;;5071915;28;19958;-72
2022/02/08 02:14:34;;;;;;;;;;;0.40;99.90;;;;;;5071273;28;19908;-72
2022/02/08 02:17:00;;;;;;;;;;;0.40;99.90;;;;;;5071345;28;19938;-73
2022/02/08 02:19:28;;;;;;;;;;;0.40;99.90;;;;;;5071430;28;19979;-73
2022/02/08 02:21:58;;;;;;;;;;;0.40;99.90;;;;;;5066051;28;20365;-73
2022/02/08 02:24:23;;;;;;;;;;;0.50;99.90;;;;;;5069648;28;19909;-73
2022/02/08 02:26:49;;;;;;;;;;;0.40;99.90;;;;;;5071237;28;19912;-74
2022/02/08 02:29:16;;;;;;;;;;;0.40;99.90;;;;;;5071201;28;20504;-72
2022/02/08 02:31:42;;;;;;;;;;;0.50;99.90;;;;;;5071274;28;19909;-73
2022/02/08 02:34:08;;;;;;;;;;;0.40;99.90;;;;;;5070443;28;19908;-72
2022/02/08 02:36:33;;;;;;;;;;;0.40;99.90;;;;;;5071429;28;20357;-74
2022/02/08 02:38:59;;;;;;;;;;;0.40;99.90;;;;;;5072357;28;19908;-73
2022/02/08 02:41:24;;;;;;;;;;;0.30;99.90;;;;;;5081764;28;19920;-72
2022/02/08 02:43:50;;;;;;;;;;;0.20;99.90;;;;;;5081387;28;19909;-73
2022/02/08 02:46:16;;;;;;;;;;;0.20;99.90;;;;;;5081611;28;19999;-74
2022/02/08 02:48:41;;;;;;;;;;;0.30;99.90;;;;;;5080973;28;20361;-72
2022/02/08 02:51:07;;;;;;;;;;;0.30;99.90;;;;;;5081048;28;19908;-72
2022/02/08 02:53:32;;;;;;;;;;;0.40;99.90;;;;;;5079802;28;19908;-71
2022/02/08 02:55:58;;;;;;;;;;;0.50;99.90;;;;;;5077048;28;19909;-72
2022/02/08 02:58:28;;;;;;;;;;;0.50;99.90;;;;;;5071017;28;19909;-73
2022/02/08 03:04:05;;;;;;;;;;;0.40;99.90;;;;;;5064989;28;20540;-73
2022/02/08 03:17:53;;;;;;;;;;;0.10;99.90;;;;;;5084023;28;19923;-74
2022/02/08 03:20:19;;;;;;;;;;;0.00;99.90;;;;;;5084923;28;19935;-73
2022/02/08 03:22:44;;;;;;;;;;;-0.20;99.90;;;;;;5087970;28;19909;-72
2022/02/08 03:25:10;;;;;;;;;;;-0.40;99.90;;;;;;5078448;28;19970;-73
2022/02/08 03:27:35;;;;;;;;;;;-0.50;99.90;;;;;;5074949;28;20010;-73
2022/02/08 03:30:01;;;;;;;;;;;-0.50;99.90;;;;;;5074947;28;19915;-74
2022/02/08 03:32:28;;;;;;;;;;;-0.50;99.90;;;;;;5074948;28;19912;-72
2022/02/08 03:34:54;;;;;;;;;;;-0.50;99.90;;;;;;5078318;28;19947;-72
2022/02/08 03:37:19;;;;;;;;;;;-0.50;99.90;;;;;;5078888;28;19916;-73
2022/02/08 03:39:54;;;;;;;;;;;-0.70;99.90;;;;;;5074399;28;20343;-74
2022/02/08 03:42:24;;;;;;;;;;;-0.70;99.90;;;;;;5074364;28;19908;-73
2022/02/08 03:44:51;;;;;;;;;;;-0.60;99.90;;;;;;5074169;28;20810;-73
2022/02/08 03:47:18;;;;;;;;;;;-0.60;99.90;;;;;;5074391;28;19944;-73
2022/02/08 03:49:44;;;;;;;;;;;-0.60;99.90;;;;;;5074466;28;20037;-73
2022/02/08 03:52:09;;;;;;;;;;;-0.70;99.90;;;;;;5068226;28;19947;-75
2022/02/08 03:54:35;;;;;;;;;;;-0.70;99.90;;;;;;5073785;28;19908;-73
2022/02/08 03:57:02;;;;;;;;;;;-0.70;99.90;;;;;;5074410;28;19915;-73
2022/02/08 03:59:28;;;;;;;;;;;-0.60;99.90;;;;;;5074309;28;19912;-73
2022/02/08 04:02:17;;;;;;;;;;;-0.60;99.90;;;;;;5074155;28;19909;-73
2022/02/08 04:07:11;;;;;;;;;;;-0.30;99.90;;;;;;5074279;28;19955;-73
2022/02/08 04:09:36;;;;;;;;;;;-0.20;99.90;;;;;;5073978;28;19908;-73
2022/02/08 04:12:07;;;;;;;;;;;0.00;99.90;;;;;;5073740;28;19949;-73
2022/02/08 04:17:16;;;;;;;;;;;0.20;99.90;;;;;;5073741;28;19917;-75
2022/02/08 04:41:00;;;;;;;;;;;0.70;99.90;;;;;;5073752;28;19912;-74
2022/02/08 04:43:33;;;;;;;;;;;0.70;99.90;;;;;;5073410;28;19959;-72
2022/02/08 04:46:10;;;;;;;;;;;0.70;99.90;;;;;;5068388;28;19909;-74
2022/02/08 04:48:51;;;;;;;;;;;0.60;99.90;;;;;;5073604;28;20293;-72
2022/02/08 04:51:23;;;;;;;;;;;0.40;99.90;;;;;;5073395;28;20495;-73
2022/02/08 04:53:57;;;;;;;;;;;0.30;99.90;;;;;;5072980;28;20279;-73
2022/02/08 04:59:24;;;;;;;;;;;0.30;99.90;;;;;;5067723;28;19909;-73
2022/02/08 05:45:14;;;;;;;;;;;1.10;99.90;;;;;;5072190;28;19974;-73
2022/02/08 05:47:43;;;;;;;;;;;1.20;99.90;;;;;;5072361;28;20250;-73
2022/02/08 05:50:25;;;;;;;;;;;1.20;99.90;;;;;;5072271;28;19909;-73
2022/02/08 05:53:04;;;;;;;;;;;1.20;99.90;;;;;;5071764;28;19912;-72
2022/02/08 05:55:30;;;;;;;;;;;1.20;99.90;;;;;;5071966;28;19915;-72
2022/02/08 05:57:56;;;;;;;;;;;1.20;99.90;;;;;;5072134;28;19944;-73
2022/02/08 06:00:29;;;;;;;;;;;1.20;99.90;;;;;;5072087;28;20009;-74
2022/02/08 06:03:04;;;;;;;;;;;1.30;99.90;;;;;;5066282;28;19908;-73
2022/02/08 06:05:29;;;;;;;;;;;1.30;99.90;;;;;;5071643;28;20269;-73
2022/02/08 06:07:55;;;;;;;;;;;1.30;99.90;;;;;;5071921;28;19915;-73
2022/02/08 06:10:20;;;;;;;;;;;1.30;99.90;;;;;;5071987;28;19962;-74
2022/02/08 06:12:48;;;;;;;;;;;1.20;99.90;;;;;;5071666;28;19920;-72
2022/02/08 06:15:16;;;;;;;;;;;1.20;99.90;;;;;;5068116;28;19915;-73
2022/02/08 06:17:42;;;;;;;;;;;1.20;99.90;;;;;;5071635;28;19981;-73
2022/02/08 06:20:08;;;;;;;;;;;1.30;99.90;;;;;;5072011;28;20356;-73
2022/02/08 06:22:35;;;;;;;;;;;1.30;99.90;;;;;;5071511;28;19908;-73
2022/02/08 06:25:01;;;;;;;;;;;1.40;99.90;;;;;;5070946;28;19908;-74
2022/02/08 06:27:30;;;;;;;;;;;1.50;99.90;;;;;;5071538;28;19916;-72
2022/02/08 06:29:57;;;;;;;;;;;1.50;99.90;;;;;;5071674;28;19912;-73
2022/02/08 06:32:23;;;;;;;;;;;1.50;99.90;;;;;;5071460;28;20195;-73
2022/02/08 06:34:48;;;;;;;;;;;1.40;99.90;;;;;;5071342;28;19909;-73
2022/02/08 06:37:17;;;;;;;;;;;1.50;99.90;;;;;;5071364;28;19909;-73
2022/02/08 06:39:42;;;;;;;;;;;1.60;99.90;;;;;;5071306;28;20021;-72
2022/02/08 06:42:09;;;;;;;;;;;1.60;99.90;;;;;;5071311;28;19909;-73
2022/02/08 06:44:35;;;;;;;;;;;1.50;99.90;;;;;;5070109;28;20273;-72
2022/02/08 06:47:01;;;;;;;;;;;1.50;99.90;;;;;;5071264;28;19975;-72
2022/02/08 06:49:26;;;;;;;;;;;1.50;99.90;;;;;;5070827;28;19917;-72
2022/02/08 06:51:52;;;;;;;;;;;1.60;99.90;;;;;;5061385;28;19960;-73
2022/02/08 06:54:17;;;;;;;;;;;1.60;99.90;;;;;;5075113;28;19966;-72
2022/02/08 06:56:43;;;;;;;;;;;1.70;99.90;;;;;;5073743;28;19915;-73
2022/02/08 06:59:11;;;;;;;;;;;1.60;99.90;;;;;;5070711;28;19931;-73
2022/02/08 07:01:37;;;;;;;;;;;1.60;99.90;;;;;;5070296;28;19923;-73
2022/02/08 07:04:05;;;;;;;;;;;1.60;99.90;;;;;;5070507;28;19915;-74
2022/02/08 07:06:31;;;;;;;;;;;1.70;99.90;;;;;;5070673;28;19908;-74
2022/02/08 07:08:56;;;;;;;;;;;1.60;99.90;;;;;;5070500;28;19999;-74
2022/02/08 07:11:22;;;;;;;;;;;1.50;99.90;;;;;;5070499;28;19909;-75
2022/02/08 07:13:49;;;;;;;;;;;1.40;99.90;;;;;;5070478;28;19915;-74
2022/02/08 07:16:15;;;;;;;;;;;1.40;99.90;;;;;;5065594;28;20007;-74
2022/02/08 07:18:40;;;;;;;;;;;1.50;99.90;;;;;;5071054;28;20376;-74
2022/02/08 07:21:06;;;;;;;;;;;1.50;99.90;;;;;;5070541;28;19917;-73
2022/02/08 07:23:32;;;;;;;;;;;1.70;99.90;;;;;;5062694;28;19979;-73
2022/02/08 07:25:58;;;;;;;;;;;1.90;99.90;;;;;;5070773;28;20433;-74
2022/02/08 07:28:23;;;;;;;;;;;2.00;99.90;;;;;;5071519;28;19908;-73
2022/02/08 07:30:55;;;;;;;;;;;2.10;99.90;;;;;;5070885;28;20268;-74
2022/02/08 07:33:21;;;;;;;;;;;2.10;99.90;;;;;;5070640;28;19912;-75
2022/02/08 07:36:25;;;;;;;;;;;2.20;99.90;;;;;;5070930;28;20035;-74
2022/02/08 07:38:39;;;;;;;;;;;2.30;99.90;;;;;;5067815;28;19908;-74
2022/02/08 07:43:31;;;;;;;;;;;2.30;99.90;;;;;;5070563;28;19996;-76
2022/02/08 07:45:56;;;;;;;;;;;2.30;99.90;;;;;;5064429;28;20427;-74
2022/02/08 07:48:22;;;;;;;;;;;2.40;99.90;;;;;;5070937;28;20272;-74
2022/02/08 07:50:50;;;;;;;;;;;2.50;99.90;;;;;;5070835;28;20354;-74
2022/02/08 07:53:16;;;;;;;;;;;2.40;99.90;;;;;;5065699;28;19927;-74
2022/02/08 07:55:42;;;;;;;;;;;2.50;99.90;;;;;;5070248;28;19909;-74
2022/02/08 07:58:07;;;;;;;;;;;2.50;99.90;;;;;;5070366;28;20357;-75
2022/02/08 08:00:33;;;;;;;;;;;2.60;99.90;;;;;;5069069;28;19991;-75
2022/02/08 08:02:59;;;;;;;;;;;2.60;99.90;;;;;;5073278;28;19962;-74
2022/02/08 08:05:26;;;;;;;;;;;2.60;99.90;;;;;;5074112;28;20452;-74
2022/02/08 08:07:51;;;;;;;;;;;2.60;99.90;;;;;;5073367;28;19940;-75
2022/02/08 08:10:20;;;;;;;;;;;2.70;99.90;;;;;;5074635;28;19956;-74
2022/02/08 08:12:49;;;;;;;;;;;2.70;99.90;;;;;;5074316;28;19981;-74
2022/02/08 08:15:33;;;;;;;;;;;2.60;99.90;;;;;;5074200;28;19908;-74
2022/02/08 08:18:12;;;;;;;;;;;2.60;99.90;;;;;;5069228;28;19917;-74
2022/02/08 08:20:38;;;;;;;;;;;2.60;99.90;;;;;;5074327;28;19913;-75
2022/02/08 08:23:03;;;;;;;;;;;2.50;99.90;;;;;;5075291;28;19961;-74
2022/02/08 08:25:28;;;;;;;;;;;2.50;99.90;;;;;;5077312;28;19973;-74
2022/02/08 08:27:54;;;;;;;;;;;2.70;99.90;;;;;;5074282;28;19915;-74
2022/02/08 08:30:20;;;;;;;;;;;2.70;99.90;;;;;;5074346;28;19915;-75
2022/02/08 08:32:46;;;;;;;;;;;2.70;99.90;;;;;;5074130;28;19912;-74
2022/02/08 08:35:14;;;;;;;;;;;2.80;99.90;;;;;;5074027;28;19908;-74
2022/02/08 08:37:42;;;;;;;;;;;3.00;99.90;;;;;;5074112;28;20219;-74
2022/02/08 08:40:24;;;;;;;;;;;3.10;99.90;;;;;;5074070;28;19919;-75
2022/02/08 08:43:17;;;;;;;;;;;3.10;99.90;;;;;;5073921;28;19916;-74
2022/02/08 08:53:39;;;;;;;;;;;4.00;99.90;;;;;;5075491;28;19912;-74
2022/02/08 08:56:04;;;;;;;;;;;4.10;99.90;;;;;;5073529;28;20373;-75
2022/02/08 08:58:31;;;;;;;;;;;3.80;99.90;;;;;;5073706;28;19973;-74
2022/02/08 09:00:59;;;;;;;;;;;4.60;99.90;;;;;;5073572;28;20436;-75
2022/02/08 09:03:25;;;;;;;;;;;6.20;99.90;;;;;;5072970;28;19909;-75
2022/02/08 09:05:50;;;;;;;;;;;7.30;98.70;;;;;;5073479;28;19908;-75
2022/02/08 09:08:16;;;;;;;;;;;8.90;94.40;;;;;;5073691;28;20006;-72
2022/02/08 09:10:51;;;;;;;;;;;8.90;92.90;;;;;;5073413;28;19908;-73
2022/02/08 09:13:29;;;;;;;;;;;9.50;91.80;;;;;;5072184;28;19909;-74
2022/02/08 09:21:36;;;;;;;;;;;10.40;86.40;;;;;;5068601;28;19912;-75
2022/02/08 09:29:37;;;;;;;;;;;10.80;82.70;;;;;;5073644;28;19908;-73
2022/02/08 09:32:12;;;;;;;;;;;10.50;82.50;;;;;;5071658;28;20361;-74
2022/02/08 09:34:41;;;;;;;;;;;10.80;81.10;;;;;;5072849;28;20387;-73
2022/02/08 09:37:14;;;;;;;;;;;11.80;78.80;;;;;;5072858;28;19912;-74
2022/02/08 09:39:40;;;;;;;;;;;11.60;76.70;;;;;;5072877;28;20007;-74
2022/02/08 09:42:07;;;;;;;;;;;10.80;77.80;;;;;;5073008;28;20335;-74
2022/02/08 09:44:33;;;;;;;;;;;11.40;77.90;;;;;;5071237;28;19915;-74
2022/02/08 09:47:00;;;;;;;;;;;12.40;74.80;;;;;;5072713;28;19916;-74
2022/02/08 09:49:26;;;;;;;;;;;12.60;73.90;;;;;;5072755;28;19913;-74
2022/02/08 09:51:52;;;;;;;;;;;12.40;74.80;;;;;;5072496;28;19916;-74
2022/02/08 09:54:20;;;;;;;;;;;12.20;75.10;;;;;;5077977;28;19912;-74
2022/02/08 09:56:46;;;;;;;;;;;12.40;74.40;;;;;;5071167;28;19912;-74
2022/02/08 09:59:11;;;;;;;;;;;13.60;71.50;;;;;;5073804;28;19909;-74
2022/02/08 10:01:38;;;;;;;;;;;13.00;71.50;;;;;;5072388;28;19912;-74
2022/02/08 10:04:04;;;;;;;;;;;14.00;70.80;;;;;;5072201;28;20013;-74
2022/02/08 10:06:30;;;;;;;;;;;14.00;69.60;;;;;;5072466;28;19959;-74
2022/02/08 10:08:59;;;;;;;;;;;13.90;69.30;;;;;;5072462;28;19919;-74
2022/02/08 10:11:29;;;;;;;;;;;14.30;69.50;;;;;;5072177;28;19920;-74
2022/02/08 10:14:14;;;;;;;;;;;15.30;68.40;;;;;;5072100;28;19908;-75
2022/02/08 10:22:33;;;;;;;;;;;13.40;70.20;;;;;;5071927;28;20392;-74
2022/02/08 10:25:07;;;;;;;;;;;14.40;67.20;;;;;;5070206;28;19916;-74
2022/02/08 10:27:51;;;;;;;;;;;14.40;68.00;;;;;;5072014;28;19916;-74
2022/02/08 10:38:20;;;;;;;;;;;15.70;65.20;;;;;;5071993;28;19918;-74
2022/02/08 10:40:46;;;;;;;;;;;15.30;63.80;;;;;;5071923;28;20003;-74
2022/02/08 10:43:16;;;;;;;;;;;14.60;66.20;;;;;;5071447;28;19908;-75
2022/02/08 10:45:41;;;;;;;;;;;15.00;65.70;;;;;;5071834;28;19995;-75
2022/02/08 10:48:07;;;;;;;;;;;14.60;65.00;;;;;;5071663;28;20340;-75
2022/02/08 10:50:34;;;;;;;;;;;14.20;65.80;;;;;;5071792;28;19908;-74
2022/02/08 10:53:01;;;;;;;;;;;14.30;65.60;;;;;;5063572;28;19912;-74
2022/02/08 10:55:39;;;;;;;;;;;13.80;67.00;;;;;;5071330;28;20021;-74
2022/02/08 11:03:06;;;;;;;;;;;13.40;69.50;;;;;;5070702;28;19909;-74
2022/02/08 11:08:37;;;;;;;;;;;14.50;69.30;;;;;;5071846;28;19909;-74
2022/02/08 11:11:11;;;;;;;;;;;13.10;69.20;;;;;;5071217;28;19908;-74
2022/02/08 11:14:03;;;;;;;;;;;11.70;73.70;;;;;;5071308;28;19913;-73
2022/02/08 11:16:31;;;;;;;;;;;11.30;75.50;;;;;;5071201;28;20003;-74
2022/02/08 11:19:09;;;;;;;;;;;12.40;74.10;;;;;;5071358;28;19916;-74
2022/02/08 11:21:52;;;;;;;;;;;11.40;75.00;;;;;;5064372;28;19913;-74
2022/02/08 11:27:16;;;;;;;;;;;11.70;75.40;;;;;;5066561;28;20369;-74
2022/02/08 11:29:49;;;;;;;;;;;12.50;74.20;;;;;;5071455;28;19909;-76
2022/02/08 11:49:27;;;;;;;;;;;9.10;88.20;;;;;;5070166;28;20285;-75
2022/02/08 11:51:56;;;;;;;;;;;8.90;90.10;;;;;;5068982;28;19909;-75
2022/02/08 12:07:28;;;;;;;;;;;10.10;89.90;;;;;;5074819;28;20003;-75
2022/02/08 12:10:04;;;;;;;;;;;10.50;89.00;;;;;;5074613;28;19955;-75
2022/02/08 12:13:07;;;;;;;;;;;10.40;88.50;;;;;;5074563;28;20420;-75
2022/02/08 12:58:59;;;;;;;;;;;9.20;94.20;;;;;;5046260;28;19944;-74
2022/02/08 14:06:52;;;;;;;;;;;9.30;95.70;;;;;;5072371;28;20389;-75
2022/02/08 14:09:29;;;;;;;;;;;9.40;95.70;;;;;;5068324;28;19948;-75
2022/02/08 14:14:53;;;;;;;;;;;9.40;96.50;;;;;;5072176;28;19916;-74
2022/02/08 14:23:07;;;;;;;;;;;9.10;96.50;;;;;;5049226;28;19909;-73
2022/02/08 14:25:47;;;;;;;;;;;9.00;97.20;;;;;;5066771;28;19947;-74
2022/02/08 15:11:32;;;;;;;;;;;8.10;99.00;;;;;;5071789;28;19908;-74
2022/02/08 15:13:26;;;;;;;;;;;8.10;98.90;;;;;;5064528;28;20388;-73
2022/02/08 15:16:07;;;;;;;;;;;8.00;98.90;;;;;;5074293;28;19916;-73
2022/02/08 15:18:33;;;;;;;;;;;8.00;99.20;;;;;;5074537;28;19909;-73
2022/02/08 15:21:00;;;;;;;;;;;8.00;99.60;;;;;;5075666;28;19913;-74
2022/02/08 15:23:26;;;;;;;;;;;8.00;99.60;;;;;;5081475;28;19916;-73
2022/02/08 15:25:55;;;;;;;;;;;7.90;99.10;;;;;;5075278;28;19916;-73
2022/02/08 15:28:22;;;;;;;;;;;7.90;99.40;;;;;;5075565;28;19912;-74
2022/02/08 15:30:48;;;;;;;;;;;8.00;99.60;;;;;;5075530;28;19908;-74
2022/02/08 15:33:14;;;;;;;;;;;8.00;99.60;;;;;;5075139;28;19992;-76
2022/02/08 15:35:39;;;;;;;;;;;7.90;99.50;;;;;;5075416;28;20346;-74
2022/02/08 15:38:05;;;;;;;;;;;7.90;99.70;;;;;;5074125;28;19916;-74
2022/02/08 15:40:32;;;;;;;;;;;7.90;99.90;;;;;;5075069;28;19912;-73
2022/02/08 15:42:57;;;;;;;;;;;7.80;99.90;;;;;;5075107;28;19915;-73
2022/02/08 15:45:37;;;;;;;;;;;7.80;99.90;;;;;;5073740;28;20432;-74
2022/02/08 15:48:02;;;;;;;;;;;7.80;99.80;;;;;;5075068;28;20281;-75
2022/02/08 15:55:48;;;;;;;;;;;7.70;99.90;;;;;;5074628;28;19912;-73
2022/02/08 16:06:54;;;;;;;;;;;7.50;99.90;;;;;;5075084;28;19974;-73
2022/02/08 17:00:47;;;;;;;;;;;6.60;99.90;;;;;;5073865;28;19923;-73
2022/02/08 17:03:13;;;;;;;;;;;6.60;99.90;;;;;;5073472;28;19909;-73
2022/02/08 17:05:39;;;;;;;;;;;6.50;99.90;;;;;;5073726;28;19931;-74
2022/02/08 17:08:04;;;;;;;;;;;6.50;99.90;;;;;;5073475;28;20269;-73
2022/02/08 17:34:44;;;;;;;;;;;6.80;99.90;;;;;;5072130;28;19931;-76
2022/02/08 17:45:30;;;;;;;;;;;6.70;99.90;;;;;;5072709;28;19966;-74
2022/02/08 17:47:56;;;;;;;;;;;6.60;99.90;;;;;;5072642;28;19909;-74
2022/02/08 17:50:21;;;;;;;;;;;6.30;99.90;;;;;;5072499;28;19908;-74
2022/02/08 17:52:47;;;;;;;;;;;6.20;99.90;;;;;;5072682;28;19915;-76
2022/02/08 17:55:13;;;;;;;;;;;6.00;99.90;;;;;;5072094;28;19913;-74
2022/02/08 17:57:40;;;;;;;;;;;6.00;99.90;;;;;;5072617;28;19915;-74
2022/02/08 18:00:07;;;;;;;;;;;6.00;99.90;;;;;;5072497;28;19916;-74
2022/02/08 18:02:32;;;;;;;;;;;6.00;99.90;;;;;;5072572;28;19916;-74
2022/02/08 18:04:59;;;;;;;;;;;6.10;99.90;;;;;;5072204;28;19913;-74
2022/02/08 18:07:25;;;;;;;;;;;6.10;99.90;;;;;;5072512;28;20384;-74
2022/02/08 18:09:52;;;;;;;;;;;6.20;99.90;;;;;;5072471;28;19943;-74
2022/02/08 18:12:19;;;;;;;;;;;6.40;99.90;;;;;;5072402;28;19912;-75
2022/02/08 18:14:51;;;;;;;;;;;6.40;99.90;;;;;;5072022;28;20019;-74
2022/02/08 18:17:23;;;;;;;;;;;6.50;99.90;;;;;;5072212;28;19928;-74
2022/02/08 18:19:56;;;;;;;;;;;6.50;99.90;;;;;;5072247;28;19912;-74
2022/02/08 18:22:32;;;;;;;;;;;6.60;99.90;;;;;;5071211;28;20301;-74
2022/02/08 18:50:27;;;;;;;;;;;6.80;99.90;;;;;;5064923;28;19915;-74
2022/02/08 19:08:51;;;;;;;;;;;7.00;99.90;;;;;;5071485;28;19908;-73
2022/02/08 19:21:09;;;;;;;;;;;6.70;99.90;;;;;;5071232;28;20039;-77
2022/02/08 19:23:35;;;;;;;;;;;6.70;99.90;;;;;;5066053;28;20003;-74
2022/02/08 19:26:02;;;;;;;;;;;6.70;99.90;;;;;;5071008;28;20281;-74
2022/02/08 19:28:28;;;;;;;;;;;6.70;99.90;;;;;;5071026;28;19909;-75
2022/02/08 19:30:53;;;;;;;;;;;6.70;99.90;;;;;;5071172;28;20387;-74
2022/02/08 19:33:21;;;;;;;;;;;6.90;99.90;;;;;;5070952;28;19909;-74
2022/02/08 19:35:47;;;;;;;;;;;6.90;99.90;;;;;;5069926;28;19913;-74
2022/02/08 19:38:15;;;;;;;;;;;6.90;99.90;;;;;;5071001;28;20347;-74
2022/02/08 19:40:41;;;;;;;;;;;6.90;99.90;;;;;;5071084;28;19938;-73
2022/02/08 19:43:07;;;;;;;;;;;6.90;99.90;;;;;;5070644;28;19912;-73
2022/02/08 19:45:40;;;;;;;;;;;6.90;99.90;;;;;;5071248;28;20308;-73
2022/02/08 19:48:05;;;;;;;;;;;6.80;99.90;;;;;;5070980;28;19909;-74
2022/02/08 19:50:33;;;;;;;;;;;6.90;99.90;;;;;;5070856;28;19909;-74
2022/02/08 19:52:59;;;;;;;;;;;7.00;99.90;;;;;;5070489;28;20003;-74
2022/02/08 19:55:39;;;;;;;;;;;7.00;99.90;;;;;;5070549;28;19948;-75
2022/02/08 19:58:11;;;;;;;;;;;7.00;99.90;;;;;;5072680;28;19912;-75
2022/02/08 20:00:38;;;;;;;;;;;6.90;99.90;;;;;;5073335;28;19920;-77
2022/02/08 20:03:06;;;;;;;;;;;7.00;99.90;;;;;;5074833;28;19916;-74
2022/02/08 20:05:32;;;;;;;;;;;7.00;99.90;;;;;;5073231;28;19908;-74
2022/02/08 20:07:59;;;;;;;;;;;7.00;99.90;;;;;;5074478;28;20035;-74
2022/02/08 20:10:26;;;;;;;;;;;7.00;99.90;;;;;;5074391;28;19908;-76
2022/02/08 20:12:52;;;;;;;;;;;6.90;99.90;;;;;;5073023;28;20406;-74
2022/02/08 20:15:19;;;;;;;;;;;6.80;99.90;;;;;;5074078;28;20265;-74
2022/02/08 20:17:45;;;;;;;;;;;6.70;99.90;;;;;;5073929;28;19920;-74
2022/02/08 20:20:14;;;;;;;;;;;6.60;99.90;;;;;;5073772;28;20005;-76
2022/02/08 20:22:44;;;;;;;;;;;6.50;99.90;;;;;;5070889;28;20311;-74
2022/02/08 20:25:11;;;;;;;;;;;6.40;99.90;;;;;;5073340;28;20285;-74
2022/02/08 20:30:12;;;;;;;;;;;6.30;99.90;;;;;;5073668;28;19912;-74
2022/02/08 20:32:37;;;;;;;;;;;6.30;99.90;;;;;;5072211;28;20288;-74
2022/02/08 20:35:04;;;;;;;;;;;6.30;99.90;;;;;;5073472;28;19915;-73
2022/02/08 20:37:29;;;;;;;;;;;6.20;99.90;;;;;;5072305;28;19908;-74
2022/02/08 20:39:55;;;;;;;;;;;6.20;99.90;;;;;;5073627;28;20011;-73
2022/02/08 20:42:24;;;;;;;;;;;6.20;99.90;;;;;;5073647;28;19909;-74
2022/02/08 20:44:51;;;;;;;;;;;6.20;99.90;;;;;;5073067;28;20003;-74
2022/02/08 20:47:23;;;;;;;;;;;6.20;99.90;;;;;;5073416;28;20356;-73
2022/02/08 20:49:56;;;;;;;;;;;6.10;99.90;;;;;;5073597;28;20335;-74
2022/02/08 20:52:22;;;;;;;;;;;6.10;99.90;;;;;;5071707;28;19915;-74
2022/02/08 20:55:00;;;;;;;;;;;6.10;99.90;;;;;;5072618;28;19909;-74
2022/02/08 20:57:34;;;;;;;;;;;6.20;99.90;;;;;;5073397;28;20350;-75
2022/02/08 20:59:59;;;;;;;;;;;6.30;99.90;;;;;;5067203;28;19908;-73
2022/02/08 21:02:35;;;;;;;;;;;6.20;99.90;;;;;;5072894;28;19916;-73
2022/02/08 21:05:17;;;;;;;;;;;6.10;99.90;;;;;;5073002;28;20365;-74
2022/02/08 21:07:43;;;;;;;;;;;6.20;99.90;;;;;;5073038;28;19916;-73
2022/02/08 21:10:08;;;;;;;;;;;6.30;99.90;;;;;;5071856;28;19908;-73
2022/02/08 21:12:42;;;;;;;;;;;6.30;99.90;;;;;;5071640;28;19912;-75
2022/02/08 21:15:09;;;;;;;;;;;6.20;99.90;;;;;;5072722;28;19908;-73
2022/02/08 21:17:39;;;;;;;;;;;6.20;99.90;;;;;;5072890;28;19909;-74
2022/02/08 21:20:04;;;;;;;;;;;6.00;99.90;;;;;;5072639;28;20003;-75
2022/02/08 21:22:30;;;;;;;;;;;6.10;99.90;;;;;;5072549;28;20433;-74
2022/02/08 21:24:55;;;;;;;;;;;6.10;99.90;;;;;;5078444;28;20604;-73
2022/02/08 21:27:23;;;;;;;;;;;6.00;99.90;;;;;;5072617;28;19968;-74
2022/02/08 21:30:03;;;;;;;;;;;6.10;99.90;;;;;;5072729;28;19916;-74
2022/02/08 21:44:00;;;;;;;;;;;5.90;99.90;;;;;;5070144;28;20379;-73
2022/02/08 21:54:08;;;;;;;;;;;6.00;99.90;;;;;;5051415;28;19956;-73
2022/02/08 21:56:33;;;;;;;;;;;5.90;99.90;;;;;;5071986;28;19908;-74
2022/02/08 21:58:59;;;;;;;;;;;5.90;99.90;;;;;;5072070;28;20353;-73
2022/02/08 22:01:24;;;;;;;;;;;5.90;99.90;;;;;;5071718;28;19920;-73
2022/02/08 22:03:50;;;;;;;;;;;5.80;99.90;;;;;;5071481;28;20007;-74
2022/02/08 22:06:15;;;;;;;;;;;5.70;99.90;;;;;;5071767;28;19961;-75
2022/02/08 22:08:51;;;;;;;;;;;5.70;99.90;;;;;;5071908;28;19969;-73
2022/02/08 22:22:14;;;;;;;;;;;5.60;99.90;;;;;;5071138;28;19954;-73
2022/02/08 22:27:39;;;;;;;;;;;5.70;99.90;;;;;;5041597;28;19912;-74
2022/02/08 22:32:45;;;;;;;;;;;5.60;99.90;;;;;;5071436;28;19909;-74
2022/02/08 22:35:20;;;;;;;;;;;5.60;99.90;;;;;;5071128;28;19908;-74
2022/02/08 22:37:57;;;;;;;;;;;5.60;99.90;;;;;;5071669;28;20344;-75
2022/02/08 22:40:27;;;;;;;;;;;5.50;99.90;;;;;;5071651;28;19912;-74
2022/02/08 22:43:02;;;;;;;;;;;5.50;99.90;;;;;;5071284;28;20254;-73
2022/02/08 22:45:28;;;;;;;;;;;5.50;99.90;;;;;;5070947;28;20020;-73
2022/02/08 22:47:55;;;;;;;;;;;5.40;99.90;;;;;;5070009;28;19965;-73
2022/02/08 22:50:20;;;;;;;;;;;5.50;99.90;;;;;;5070088;28;19908;-75
2022/02/08 22:52:46;;;;;;;;;;;5.50;99.90;;;;;;5071039;28;19923;-73
2022/02/08 22:55:11;;;;;;;;;;;5.50;99.90;;;;;;5081610;28;19915;-73
2022/02/08 22:57:37;;;;;;;;;;;5.60;99.90;;;;;;5071101;28;20028;-74
2022/02/08 23:00:09;;;;;;;;;;;5.50;99.90;;;;;;5070819;28;19915;-73
2022/02/08 23:02:36;;;;;;;;;;;5.50;99.90;;;;;;5070948;28;19936;-75
2022/02/08 23:05:01;;;;;;;;;;;5.60;99.90;;;;;;5070846;28;20257;-73
2022/02/08 23:07:27;;;;;;;;;;;5.50;99.90;;;;;;5069587;28;19915;-75
2022/02/08 23:10:00;;;;;;;;;;;5.50;99.90;;;;;;5071087;28;19918;-73
2022/02/08 23:39:21;;;;;;;;;;;5.40;99.90;;;;;;5074822;28;19909;-74